Helton, KY

2:45 PM EDT on July 26, 2014 (GMT -0400)
London-Corbin / McKee (KLOZ) Elev 1211 ft | 37.09 °N, 84.08 °W | Change Station
Active Advisory: Special Statement Active Notice: Record Report

Current weather conditions updated 2 hours ago

Scattered Clouds
Scattered Clouds
77 °F
Feels Like 77 °F
N
5
Wind Variable Wind from South

Today is forecast to be Warmer than yesterday. Late night thunderstorms tonight.

Today
High -- | Low -- °F
--% Chance of Precip.
Yesterday
High -- | Low -- °F
Precip. -- in
6:34 AM 8:45 PM
Waning Crescent, 0% visible
Pressure 30.06 in
Visibility 10.0 miles
Clouds Scattered Clouds 10000 ft
Dew Point 63 °F
Humidity 62%
Rainfall 0.00 in
Snow Depth Not available.
UV 8 out of 12
Pollen 4.30 out of 12
Air Quality Not available.
Flu Activity Not available.
METAR KLOZ 261553Z AUTO 19004KT 10SM SCT100 25/17 A3009 RMK AO2 SLP177 T02500172

More Conditions Fewer Conditions

Pressure 30.06 in
Visibility 10.0 miles
Clouds Scattered Clouds 10000 ft
Dew Point 63 °F
Humidity 62%
Rainfall 0.00 in
Snow Depth Not available.
UV 8 out of 12
Pollen 4.30 out of 12
Air Quality Not available.
Flu Activity Not available.
METAR KLOZ 261553Z AUTO 19004KT 10SM SCT100 25/17 A3009 RMK AO2 SLP177 T02500172

More Conditions Fewer Conditions

10-Day Weather Forecast

Almanac

Astronomy

Jul. 26, 2014 Rise Set
Actual Time 6:34 AM EDT 8:45 PM EDT
Civil Twilight 6:04 AM EDT 9:14 PM EDT
Nautical Twilight 5:29 AM EDT 9:49 PM EDT
Astronomical Twilight 4:50 AM EDT 10:28 PM EDT
Moon 6:23 AM EDT 8:21 PM EDT
Length of Visible Light 15h 09m
Length of Day
14h 11m
Tomorrow will be 1m 36s shorter.
Waning Crescent, 0% of the Moon is Illuminated
Today
Waning Crescent
Jul 26
New
Aug 3
First Quarter
Aug 10
Full
Aug 17
Last Quarter

Today's Extremes

State Highs State Lows

Community

WunderPhotos

Upload Photos

1,737,662 photos uploaded!

Nearby

Snow Depth

Station Depth Elevation
No new snow has been reported.

Earthquake Activity

City Distance Mag. Time & Date
No recent earthquake activity has been reported nearby.
Minimum magnitude displayed is 2.5.

Coastal Water Temperatures

Place Temperature
No Stations Reporting

Nearby Weather Stations

Station Location Temp. Heat Index Dew Point Humidity Wind Precip. Elev Updated Type
Rose Hill, Rose Hill, VA 80.5 °F 82 °F 65 °F 59% SSW  at  1.0 mph 0.00 in / hr 1860 ft 2:39 PM EDT Normal
White Rocks View, Rose Hill, VA 80.3 °F 83 °F 68 °F 67% WNW  at  1.0 mph 0.00 in / hr 1470 ft 2:45 PM EDT Rapid Fire
Colmar, Middlesboro, KY 83.2 °F 87 °F 70 °F 64% NNE  at  3.0 mph - / hr 1135 ft 2:34 PM EDT Normal
RAWS PEABODY KY, Big Creek, KY 78 °F 80 °F 66 °F 67% SE  at  2 mph 0.00 in / hr 1464 ft 2:01 PM EDT MADIS

Show More Stations Show Fewer Stations